Time;durP1;ratioP1;P1;durP2;ratioP2;P2;SDS_P1;SDS_P2;PMS_P1;PMS_P2;Temp;Humidity;BMP_temperature;BMP_pressure;BME280_temperature;BME280_humidity;BME280_pressure;Samples;Min_cycle;Max_cycle;Signal;HPM_P1;HPM_P2
2021/06/16 00:00:37;;;;;;;2.50;1.00;;;19.20;92.40;;;;;;2069550;28;20100;-69
2021/06/16 00:01:38;;;;;;;1.30;0.90;;;19.20;91.40;;;;;;2062116;28;20027;-69
2021/06/16 00:02:39;;;;;;;1.63;1.27;;;19.20;92.20;;;;;;2045910;29;20043;-69
2021/06/16 00:03:40;;;;;;;4.00;1.50;;;19.20;91.70;;;;;;2047173;28;20020;-69
2021/06/16 00:04:40;;;;;;;3.35;1.25;;;19.20;92.20;;;;;;2054378;28;20015;-69
2021/06/16 00:05:41;;;;;;;3.97;1.55;;;19.10;91.80;;;;;;2053548;28;20035;-69
2021/06/16 00:06:42;;;;;;;2.38;1.48;;;19.10;92.50;;;;;;2054389;28;20248;-69
2021/06/16 00:07:43;;;;;;;5.22;1.27;;;19.20;92.80;;;;;;2055177;28;20023;-69
2021/06/16 00:08:43;;;;;;;2.80;1.20;;;19.10;92.00;;;;;;2055573;28;20027;-69
2021/06/16 00:09:44;;;;;;;3.00;1.30;;;19.10;92.50;;;;;;2055356;28;20500;-69
2021/06/16 00:10:45;;;;;;;6.80;1.92;;;19.10;91.90;;;;;;2055341;28;20026;-69
2021/06/16 00:11:45;;;;;;;2.05;0.90;;;19.10;91.90;;;;;;2054450;28;20033;-69
2021/06/16 00:12:46;;;;;;;7.53;1.20;;;19.10;91.50;;;;;;2055519;28;20450;-69
2021/06/16 00:13:47;;;;;;;3.13;1.52;;;19.10;93.00;;;;;;2055610;28;20034;-69
2021/06/16 00:14:47;;;;;;;3.97;1.25;;;19.00;92.40;;;;;;2054665;28;20500;-69
2021/06/16 00:15:50;;;;;;;1.95;1.13;;;19.00;92.70;;;;;;2054273;28;20035;-69
2021/06/16 00:16:50;;;;;;;4.45;1.70;;;19.00;93.00;;;;;;2055323;28;20522;-69
2021/06/16 00:17:51;;;;;;;4.03;1.30;;;19.00;92.90;;;;;;2055289;28;20756;-69
2021/06/16 00:18:52;;;;;;;2.70;1.10;;;19.00;93.70;;;;;;2055296;28;20482;-69
2021/06/16 00:19:53;;;;;;;3.25;1.27;;;19.00;93.80;;;;;;2055203;28;20035;-69
2021/06/16 00:20:53;;;;;;;3.55;2.05;;;19.00;92.90;;;;;;2055592;28;20029;-69
2021/06/16 00:21:54;;;;;;;2.17;1.40;;;18.90;93.50;;;;;;2050126;28;20015;-69
2021/06/16 00:22:56;;;;;;;3.50;1.45;;;18.90;93.10;;;;;;2047428;29;20038;-69
2021/06/16 00:23:56;;;;;;;3.75;1.15;;;19.00;92.50;;;;;;2046897;28;20031;-69
2021/06/16 00:24:57;;;;;;;3.10;1.40;;;18.90;93.20;;;;;;2046996;28;20114;-69
2021/06/16 00:25:57;;;;;;;2.40;1.08;;;18.90;93.90;;;;;;2046865;29;20153;-69
2021/06/16 00:26:58;;;;;;;3.75;1.25;;;18.90;93.50;;;;;;2047382;29;20033;-69
2021/06/16 00:27:59;;;;;;;2.10;1.15;;;18.90;93.10;;;;;;2054731;28;20486;-69
2021/06/16 00:29:00;;;;;;;2.60;1.70;;;18.90;93.10;;;;;;2095244;28;20380;-69
2021/06/16 00:30:00;;;;;;;3.67;1.10;;;18.90;93.60;;;;;;2056536;28;20118;-69
2021/06/16 00:31:01;;;;;;;2.97;1.42;;;18.90;92.10;;;;;;2090241;28;20040;-69
2021/06/16 00:32:02;;;;;;;4.00;1.48;;;18.80;91.60;;;;;;2047586;28;20399;-69
2021/06/16 00:33:03;;;;;;;2.85;1.75;;;18.80;91.90;;;;;;2047093;29;20503;-69
2021/06/16 00:34:03;;;;;;;2.25;1.15;;;18.80;93.40;;;;;;2047135;29;20391;-69
2021/06/16 00:35:05;;;;;;;5.82;1.58;;;18.80;92.40;;;;;;2047217;29;20416;-69
2021/06/16 00:36:06;;;;;;;5.53;1.50;;;18.80;92.90;;;;;;2047258;28;20423;-69
2021/06/16 00:37:07;;;;;;;2.53;1.60;;;18.80;92.90;;;;;;2047309;29;20031;-69
2021/06/16 00:38:07;;;;;;;4.50;1.48;;;18.80;92.50;;;;;;2047375;29;20035;-69
2021/06/16 00:39:09;;;;;;;6.00;1.58;;;18.80;93.70;;;;;;2047131;28;20034;-69
2021/06/16 00:40:13;;;;;;;5.70;1.33;;;18.70;93.60;;;;;;2047250;28;20561;-69
2021/06/16 00:41:13;;;;;;;3.05;1.50;;;18.80;94.30;;;;;;2048910;28;20116;-69
2021/06/16 00:42:14;;;;;;;3.78;1.33;;;18.70;94.70;;;;;;2054943;28;20022;-69
2021/06/16 00:43:14;;;;;;;3.05;1.30;;;18.70;94.20;;;;;;2054600;28;20026;-69
2021/06/16 00:44:15;;;;;;;1.73;1.08;;;18.70;93.90;;;;;;2055552;28;20023;-69
2021/06/16 00:45:17;;;;;;;5.18;1.70;;;18.70;93.60;;;;;;2055030;28;20035;-69
2021/06/16 00:46:18;;;;;;;2.78;1.45;;;18.70;93.80;;;;;;2051206;28;20033;-69
2021/06/16 00:47:18;;;;;;;3.75;1.45;;;18.70;94.60;;;;;;2052984;28;20025;-69
2021/06/16 00:48:19;;;;;;;3.95;1.10;;;18.70;94.20;;;;;;2055308;28;20023;-69
2021/06/16 00:49:19;;;;;;;2.72;1.20;;;18.70;93.80;;;;;;2057059;28;20015;-69
2021/06/16 00:50:22;;;;;;;5.55;1.30;;;18.60;93.50;;;;;;2063114;28;20065;-69
2021/06/16 00:51:22;;;;;;;6.75;1.48;;;18.60;93.50;;;;;;2055527;28;20015;-69
2021/06/16 00:52:23;;;;;;;4.50;1.63;;;18.60;94.00;;;;;;2052623;28;20042;-69
2021/06/16 00:53:24;;;;;;;4.03;1.63;;;18.60;94.90;;;;;;2047360;29;20039;-69
2021/06/16 00:54:24;;;;;;;2.83;1.67;;;18.60;94.60;;;;;;2047213;29;20107;-69
2021/06/16 00:55:25;;;;;;;2.17;1.38;;;18.60;95.00;;;;;;2048950;28;20027;-69
2021/06/16 00:56:26;;;;;;;3.92;1.17;;;18.60;94.70;;;;;;2046998;28;20101;-69
2021/06/16 00:57:27;;;;;;;3.88;1.55;;;18.60;94.20;;;;;;2046981;29;20066;-69
2021/06/16 00:58:28;;;;;;;1.52;1.13;;;18.60;94.40;;;;;;2047289;29;20104;-69
2021/06/16 01:00:07;;;;;;;6.57;1.38;;;18.60;94.10;;;;;;2062225;28;20134;-69
2021/06/16 01:01:21;;;;;;;2.67;1.40;;;18.60;95.70;;;;;;2053968;28;20030;-69
2021/06/16 01:02:24;;;;;;;4.80;1.55;;;18.50;94.60;;;;;;2054916;28;20027;-69
2021/06/16 01:03:33;;;;;;;3.95;1.92;;;18.50;94.40;;;;;;2055106;28;20496;-69
2021/06/16 01:04:35;;;;;;;2.70;1.58;;;18.50;95.40;;;;;;2055117;28;20030;-69
2021/06/16 01:05:49;;;;;;;2.35;1.50;;;18.50;95.70;;;;;;2054938;28;20038;-69
2021/06/16 01:06:58;;;;;;;4.10;1.33;;;18.50;96.10;;;;;;2055345;28;20065;-69
2021/06/16 01:08:01;;;;;;;2.10;1.80;;;18.50;95.20;;;;;;2054999;28;20486;-69
2021/06/16 01:09:11;;;;;;;1.80;1.02;;;18.40;94.70;;;;;;2055078;28;20034;-69
2021/06/16 01:10:19;;;;;;;5.85;2.08;;;18.40;94.30;;;;;;2055037;28;20041;-69
2021/06/16 01:11:23;;;;;;;3.17;1.27;;;18.40;94.90;;;;;;2054934;28;20092;-69
2021/06/16 01:12:43;;;;;;;4.95;1.55;;;18.40;94.70;;;;;;2054344;28;20027;-69
2021/06/16 01:13:57;;;;;;;4.32;1.70;;;18.40;95.30;;;;;;2055071;28;20472;-69
2021/06/16 01:15:07;;;;;;;6.72;1.50;;;18.40;95.70;;;;;;2054948;28;20113;-69
2021/06/16 01:16:14;;;;;;;4.35;1.15;;;18.40;95.10;;;;;;2054840;28;20027;-69
2021/06/16 01:17:21;;;;;;;1.90;1.35;;;18.40;94.60;;;;;;2054947;28;20381;-69
2021/06/16 01:18:23;;;;;;;4.55;1.75;;;18.40;94.90;;;;;;2054487;28;20760;-69
2021/06/16 01:19:51;;;;;;;3.28;1.50;;;18.40;94.60;;;;;;2054776;28;20536;-69
2021/06/16 01:20:57;;;;;;;4.55;1.65;;;18.40;94.90;;;;;;2054855;28;20026;-69
2021/06/16 01:22:02;;;;;;;7.63;2.10;;;18.30;94.60;;;;;;2048817;28;20428;-69
2021/06/16 01:23:09;;;;;;;6.03;1.42;;;18.30;95.20;;;;;;2046602;29;20058;-69
2021/06/16 01:24:17;;;;;;;2.83;1.30;;;18.30;94.90;;;;;;2047118;28;20375;-69
2021/06/16 01:26:00;;;;;;;3.60;1.67;;;18.30;94.80;;;;;;2047315;28;20188;-69
2021/06/16 01:27:01;;;;;;;2.72;1.38;;;18.30;95.60;;;;;;2053137;28;20134;-69
2021/06/16 01:28:02;;;;;;;4.15;2.28;;;18.30;95.40;;;;;;2065113;28;20398;-69
2021/06/16 01:29:13;;;;;;;3.70;1.60;;;18.30;96.30;;;;;;2054704;28;20099;-69
2021/06/16 01:30:14;;;;;;;3.50;1.60;;;18.30;96.50;;;;;;2059025;28;20030;-69
2021/06/16 01:31:19;;;;;;;3.78;1.55;;;18.30;95.60;;;;;;2058356;28;20033;-69
2021/06/16 01:32:21;;;;;;;2.38;1.08;;;18.30;96.60;;;;;;2067360;28;20039;-69
2021/06/16 01:33:23;;;;;;;3.95;1.50;;;18.30;95.70;;;;;;2078001;28;20042;-69
2021/06/16 01:34:24;;;;;;;4.00;1.83;;;18.30;95.40;;;;;;2089963;28;20400;-69
2021/06/16 01:35:30;;;;;;;3.28;1.45;;;18.30;97.00;;;;;;2070225;28;20460;-69
2021/06/16 01:36:33;;;;;;;7.03;1.58;;;18.30;96.10;;;;;;2088794;28;20024;-69
2021/06/16 01:37:34;;;;;;;2.60;1.50;;;18.30;97.10;;;;;;2087658;28;20365;-69
2021/06/16 01:38:35;;;;;;;2.42;1.52;;;18.30;97.10;;;;;;2094425;28;20043;-69
2021/06/16 01:39:37;;;;;;;4.35;1.80;;;18.30;96.90;;;;;;2075301;28;20027;-69
2021/06/16 01:40:39;;;;;;;2.60;1.23;;;18.30;97.60;;;;;;2078736;28;20088;-69
2021/06/16 01:41:41;;;;;;;2.53;1.17;;;18.30;97.10;;;;;;2079855;28;20643;-69
2021/06/16 01:42:43;;;;;;;3.45;1.40;;;18.30;97.10;;;;;;2070197;28;20045;-69
2021/06/16 01:43:44;;;;;;;6.88;2.00;;;18.30;97.40;;;;;;2083215;28;20009;-69
2021/06/16 01:44:49;;;;;;;5.05;1.65;;;18.30;97.60;;;;;;2064447;28;20382;-69
2021/06/16 01:45:51;;;;;;;3.70;2.10;;;18.30;97.10;;;;;;2056133;28;20026;-69
2021/06/16 01:46:53;;;;;;;4.70;1.55;;;18.30;97.10;;;;;;2096630;28;20108;-69
2021/06/16 01:47:56;;;;;;;5.05;1.85;;;18.20;97.40;;;;;;2061214;28;20031;-69
2021/06/16 01:48:58;;;;;;;6.25;1.67;;;18.20;96.90;;;;;;2089554;28;20070;-69
2021/06/16 01:50:02;;;;;;;2.85;1.50;;;18.20;96.60;;;;;;2066552;28;20038;-69
2021/06/16 01:51:05;;;;;;;3.78;1.38;;;18.20;96.80;;;;;;2074524;28;20027;-69
2021/06/16 01:52:06;;;;;;;3.90;1.60;;;18.20;96.60;;;;;;2064021;28;20042;-69
2021/06/16 01:53:07;;;;;;;5.38;2.10;;;18.20;96.80;;;;;;2056821;28;20117;-69
2021/06/16 01:54:09;;;;;;;4.60;1.45;;;18.20;97.80;;;;;;2054708;28;20038;-69
2021/06/16 01:55:10;;;;;;;6.95;2.67;;;18.20;96.70;;;;;;2054618;28;20470;-69
2021/06/16 01:56:12;;;;;;;2.53;1.45;;;18.20;97.70;;;;;;2054788;28;20049;-69
2021/06/16 01:57:12;;;;;;;5.15;1.50;;;18.20;97.30;;;;;;2054762;28;20034;-69
2021/06/16 01:58:14;;;;;;;2.70;1.75;;;18.20;97.00;;;;;;2054496;28;20070;-69
2021/06/16 01:59:16;;;;;;;8.45;1.80;;;18.20;97.80;;;;;;2054391;28;20453;-69
2021/06/16 02:00:19;;;;;;;4.60;1.73;;;18.20;98.40;;;;;;2054407;28;20023;-69
2021/06/16 02:01:22;;;;;;;4.53;1.55;;;18.10;98.60;;;;;;2055497;28;20069;-69
2021/06/16 02:02:22;;;;;;;2.33;1.52;;;18.20;97.70;;;;;;2075918;28;20023;-69
2021/06/16 02:03:23;;;;;;;3.10;1.50;;;18.10;98.40;;;;;;2083834;28;20035;-69
2021/06/16 02:04:24;;;;;;;5.75;1.73;;;18.10;98.50;;;;;;2070151;28;20028;-69
2021/06/16 02:05:29;;;;;;;5.97;1.90;;;18.10;98.60;;;;;;2087252;28;20048;-69
2021/06/16 02:06:35;;;;;;;4.85;1.92;;;18.10;98.60;;;;;;2056027;28;20603;-69
2021/06/16 02:07:41;;;;;;;2.95;1.70;;;18.10;99.20;;;;;;2055933;28;20026;-69
2021/06/16 02:08:44;;;;;;;4.95;1.75;;;18.10;98.70;;;;;;2055909;28;20483;-69
2021/06/16 02:09:48;;;;;;;2.55;1.80;;;18.10;99.20;;;;;;2055843;28;20038;-69
2021/06/16 02:10:51;;;;;;;4.57;1.75;;;18.00;99.60;;;;;;2056141;28;20029;-69
2021/06/16 02:11:52;;;;;;;10.90;2.35;;;18.00;99.00;;;;;;2055298;28;20053;-69
2021/06/16 02:12:57;;;;;;;3.80;1.77;;;18.00;99.20;;;;;;2055892;28;20045;-69
2021/06/16 02:14:01;;;;;;;4.07;1.75;;;18.00;99.10;;;;;;2055757;28;20050;-69
2021/06/16 02:15:06;;;;;;;6.55;1.98;;;18.00;98.80;;;;;;2055812;28;20101;-69
2021/06/16 02:16:12;;;;;;;3.90;1.85;;;18.00;99.10;;;;;;2055434;28;20041;-69
2021/06/16 02:17:15;;;;;;;4.38;1.70;;;18.00;99.30;;;;;;2055979;28;20124;-69
2021/06/16 02:18:18;;;;;;;3.33;1.67;;;18.00;99.40;;;;;;2055818;28;20048;-69
2021/06/16 02:19:27;;;;;;;3.13;1.25;;;17.90;98.40;;;;;;2055580;28;20023;-69
2021/06/16 02:20:29;;;;;;;5.63;1.58;;;17.90;99.20;;;;;;2053666;28;20038;-69
2021/06/16 02:21:30;;;;;;;4.78;2.10;;;17.90;99.20;;;;;;2055565;28;20023;-69
2021/06/16 02:22:31;;;;;;;5.05;1.63;;;17.90;99.40;;;;;;2055820;28;20031;-69
2021/06/16 02:23:31;;;;;;;6.07;2.55;;;17.90;98.80;;;;;;2055906;28;20474;-69
2021/06/16 02:24:36;;;;;;;6.57;2.03;;;17.90;99.90;;;;;;2055717;28;20033;-69
2021/06/16 02:25:37;;;;;;;2.83;1.63;;;17.90;99.40;;;;;;2055763;28;20054;-69
2021/06/16 02:26:38;;;;;;;4.05;1.95;;;17.80;99.30;;;;;;2055605;28;20786;-69
2021/06/16 02:27:39;;;;;;;2.47;1.40;;;17.80;98.60;;;;;;2055845;28;20023;-69
2021/06/16 02:28:41;;;;;;;4.00;2.00;;;17.80;98.50;;;;;;2080980;28;20032;-69
2021/06/16 02:29:42;;;;;;;2.40;1.90;;;17.80;99.50;;;;;;2070487;28;20058;-69
2021/06/16 02:30:42;;;;;;;3.80;1.70;;;17.80;99.90;;;;;;2083133;28;20078;-69
2021/06/16 02:31:43;;;;;;;6.78;2.15;;;17.80;99.50;;;;;;2067572;28;20114;-69
2021/06/16 02:32:44;;;;;;;4.00;2.05;;;17.80;99.70;;;;;;2055617;28;20022;-69
2021/06/16 02:33:49;;;;;;;6.18;2.00;;;17.80;99.70;;;;;;2055848;28;20026;-69
2021/06/16 02:34:50;;;;;;;4.25;2.38;;;17.80;99.80;;;;;;2055503;28;20132;-69
2021/06/16 02:35:50;;;;;;;7.43;2.67;;;17.80;99.90;;;;;;2055789;28;20037;-69
2021/06/16 02:36:55;;;;;;;4.38;1.95;;;17.70;99.90;;;;;;2055596;28;20505;-69
2021/06/16 02:38:05;;;;;;;4.13;1.73;;;17.70;99.90;;;;;;2055729;28;20034;-69
2021/06/16 02:39:12;;;;;;;;;;;17.70;99.90;;;;;;2056241;28;20029;-69
2021/06/16 02:40:16;;;;;;;3.75;2.58;;;17.60;99.90;;;;;;2055651;28;20302;-69
2021/06/16 02:41:18;;;;;;;4.10;1.95;;;17.60;99.70;;;;;;2066416;28;20030;-69
2021/06/16 02:42:19;;;;;;;4.50;1.60;;;17.60;99.60;;;;;;2086184;28;20042;-69
2021/06/16 02:43:21;;;;;;;3.63;1.70;;;17.60;99.40;;;;;;2067563;28;20034;-69
2021/06/16 02:44:24;;;;;;;4.50;2.00;;;17.60;99.90;;;;;;2081877;28;20471;-69
2021/06/16 02:45:27;;;;;;;5.97;2.17;;;17.60;99.90;;;;;;2055592;28;20062;-69
2021/06/16 02:46:30;;;;;;;4.03;2.10;;;17.60;99.90;;;;;;2055450;28;20031;-69
2021/06/16 02:47:32;;;;;;;2.22;2.00;;;17.60;99.60;;;;;;2055552;28;20428;-69
2021/06/16 02:48:34;;;;;;;4.45;2.00;;;17.60;99.40;;;;;;2055895;28;20039;-69
2021/06/16 02:49:42;;;;;;;5.95;2.53;;;17.60;98.90;;;;;;2055509;28;20070;-69
2021/06/16 02:50:45;;;;;;;3.75;1.70;;;17.60;99.90;;;;;;2055786;28;20380;-69
2021/06/16 02:51:46;;;;;;;3.85;1.88;;;17.60;99.90;;;;;;2054867;28;21034;-69
2021/06/16 02:52:48;;;;;;;4.90;2.33;;;17.60;99.90;;;;;;2055720;28;20041;-69
2021/06/16 02:53:49;;;;;;;4.45;2.25;;;17.60;99.90;;;;;;2055564;28;20073;-69
2021/06/16 02:54:56;;;;;;;3.40;2.00;;;17.50;99.90;;;;;;2055558;28;20524;-69
2021/06/16 02:56:02;;;;;;;7.85;2.63;;;17.60;99.90;;;;;;2055462;28;20023;-69
2021/06/16 02:57:03;;;;;;;2.88;2.05;;;17.60;99.90;;;;;;2055700;28;20467;-69
2021/06/16 02:58:06;;;;;;;4.32;2.15;;;17.50;99.90;;;;;;2055506;28;20027;-69
2021/06/16 02:59:07;;;;;;;4.53;2.60;;;17.50;99.90;;;;;;2055516;28;20435;-69
2021/06/16 03:00:10;;;;;;;5.25;2.38;;;17.50;99.90;;;;;;2055228;28;20027;-69
2021/06/16 03:01:16;;;;;;;5.40;2.00;;;17.50;99.90;;;;;;2055457;28;20030;-69
2021/06/16 03:02:20;;;;;;;3.83;1.80;;;17.50;99.90;;;;;;2053289;28;20553;-69
2021/06/16 03:03:22;;;;;;;6.50;2.25;;;17.50;99.90;;;;;;2054721;28;20035;-69
2021/06/16 03:04:24;;;;;;;5.95;2.63;;;17.50;99.90;;;;;;2047672;28;20026;-69
2021/06/16 03:05:27;;;;;;;3.63;2.45;;;17.50;99.90;;;;;;2046497;29;20040;-69
2021/06/16 03:06:29;;;;;;;5.22;2.38;;;17.50;99.90;;;;;;2045771;28;20028;-69
2021/06/16 03:07:34;;;;;;;7.22;2.58;;;17.40;99.90;;;;;;2045785;28;20406;-69
2021/06/16 03:08:36;;;;;;;5.60;2.15;;;17.40;99.90;;;;;;2045544;29;20085;-69
2021/06/16 03:09:39;;;;;;;5.97;2.63;;;17.40;99.90;;;;;;2046467;29;20015;-69
2021/06/16 03:10:40;;;;;;;4.72;2.97;;;17.40;99.90;;;;;;2046057;28;20011;-69
2021/06/16 03:11:41;;;;;;;16.55;3.22;;;17.40;99.90;;;;;;2045716;29;20501;-69
2021/06/16 03:12:43;;;;;;;5.10;2.30;;;17.40;99.90;;;;;;2046342;29;20367;-69
2021/06/16 03:13:45;;;;;;;3.78;2.20;;;17.40;99.90;;;;;;2046203;28;20081;-69
2021/06/16 03:14:47;;;;;;;5.97;2.58;;;17.40;99.90;;;;;;2046106;28;20512;-69
2021/06/16 03:15:48;;;;;;;5.35;2.20;;;17.40;99.90;;;;;;2046412;28;20031;-69
2021/06/16 03:16:50;;;;;;;4.38;2.28;;;17.40;99.90;;;;;;2049015;28;20027;-69
2021/06/16 03:17:52;;;;;;;6.38;2.30;;;17.40;99.90;;;;;;2052053;28;20219;-69
2021/06/16 03:18:54;;;;;;;6.13;2.33;;;17.40;99.90;;;;;;2053945;28;20098;-69
2021/06/16 03:19:57;;;;;;;5.80;2.95;;;17.40;99.90;;;;;;2054082;28;20019;-69
2021/06/16 03:20:59;;;;;;;7.07;2.92;;;17.40;99.90;;;;;;2053799;28;20033;-69
2021/06/16 03:22:03;;;;;;;4.90;2.25;;;17.40;99.90;;;;;;2052988;28;20031;-69
2021/06/16 03:23:04;;;;;;;5.55;2.42;;;17.40;99.90;;;;;;2053555;28;20486;-69
2021/06/16 03:24:08;;;;;;;4.07;2.20;;;17.40;99.90;;;;;;2054395;28;20050;-69
2021/06/16 03:25:10;;;;;;;4.68;2.80;;;17.40;99.90;;;;;;2054139;28;20500;-69
2021/06/16 03:26:12;;;;;;;2.70;2.00;;;17.40;99.90;;;;;;2053722;28;20054;-69
2021/06/16 03:27:13;;;;;;;2.85;1.83;;;17.40;99.90;;;;;;2076131;28;20094;-69
2021/06/16 03:28:16;;;;;;;4.00;2.17;;;17.40;99.90;;;;;;2072426;28;20034;-69
2021/06/16 03:29:18;;;;;;;2.75;2.40;;;17.40;99.90;;;;;;2054041;28;20058;-69
2021/06/16 03:30:21;;;;;;;7.22;3.22;;;17.40;99.90;;;;;;2065093;28;20558;-69
2021/06/16 03:31:22;;;;;;;4.90;2.28;;;17.40;99.90;;;;;;2064378;28;20581;-69
2021/06/16 03:32:24;;;;;;;4.75;2.58;;;17.40;99.90;;;;;;2054167;28;20088;-69
2021/06/16 03:33:24;;;;;;;7.35;2.30;;;17.40;99.90;;;;;;2053728;28;20070;-69
2021/06/16 03:34:25;;;;;;;3.97;2.28;;;17.40;99.90;;;;;;2068654;28;20071;-69
2021/06/16 03:35:26;;;;;;;3.42;2.70;;;17.40;99.90;;;;;;2061485;28;20561;-69
2021/06/16 03:36:28;;;;;;;3.33;2.38;;;17.40;99.90;;;;;;2054677;28;20366;-69
2021/06/16 03:37:29;;;;;;;6.65;2.53;;;17.40;99.90;;;;;;2058570;28;20030;-69
2021/06/16 03:38:31;;;;;;;8.60;2.70;;;17.40;99.90;;;;;;2057842;28;20431;-69
2021/06/16 03:39:32;;;;;;;10.07;2.90;;;17.40;99.90;;;;;;2058477;28;20038;-69
2021/06/16 03:40:33;;;;;;;6.05;2.53;;;17.40;99.90;;;;;;2053575;28;20152;-69
2021/06/16 03:41:37;;;;;;;8.80;2.90;;;17.30;99.90;;;;;;2053254;28;20023;-69
2021/06/16 03:42:39;;;;;;;4.43;2.75;;;17.40;99.90;;;;;;2071184;28;20401;-69
2021/06/16 03:43:41;;;;;;;4.22;2.70;;;17.40;99.90;;;;;;2070912;28;20022;-69
2021/06/16 03:44:43;;;;;;;4.18;2.30;;;17.40;99.90;;;;;;2055343;28;20023;-69
2021/06/16 03:45:45;;;;;;;7.25;2.63;;;17.40;99.90;;;;;;2059568;28;20030;-69
2021/06/16 03:46:47;;;;;;;4.47;2.60;;;17.40;99.90;;;;;;2055156;28;20053;-69
2021/06/16 03:47:49;;;;;;;5.00;3.05;;;17.40;99.90;;;;;;2055217;28;20113;-69
2021/06/16 03:48:53;;;;;;;6.80;3.03;;;17.40;99.90;;;;;;2055628;28;20452;-69
2021/06/16 03:49:55;;;;;;;8.02;2.67;;;17.40;99.90;;;;;;2055370;28;20463;-69
2021/06/16 03:50:56;;;;;;;4.53;2.95;;;17.40;99.90;;;;;;2055670;28;20077;-69
2021/06/16 03:51:58;;;;;;;6.55;2.92;;;17.40;99.90;;;;;;2054916;28;20035;-69
2021/06/16 03:53:00;;;;;;;4.30;2.95;;;17.40;99.90;;;;;;2055269;28;20030;-69
2021/06/16 03:54:02;;;;;;;6.72;2.92;;;17.40;99.90;;;;;;2055379;28;20061;-69
2021/06/16 03:55:04;;;;;;;8.02;2.80;;;17.40;99.90;;;;;;2055737;28;20030;-69
2021/06/16 03:56:05;;;;;;;5.57;2.90;;;17.40;99.90;;;;;;2055241;28;20034;-69
2021/06/16 03:57:07;;;;;;;5.13;3.42;;;17.40;99.90;;;;;;2055447;28;20122;-69
2021/06/16 03:58:10;;;;;;;8.07;2.92;;;17.50;99.90;;;;;;2055281;28;20482;-69
2021/06/16 03:59:12;;;;;;;7.72;2.70;;;17.50;99.90;;;;;;2055365;28;20031;-69
2021/06/16 04:00:13;;;;;;;4.03;2.63;;;17.50;99.90;;;;;;2054996;28;20064;-69
2021/06/16 04:01:14;;;;;;;4.25;2.50;;;17.50;99.90;;;;;;2055589;28;20084;-69
2021/06/16 04:02:16;;;;;;;5.78;2.63;;;17.50;99.90;;;;;;2054941;28;20031;-69
2021/06/16 04:03:18;;;;;;;4.90;2.83;;;17.50;99.90;;;;;;2054935;28;20054;-69
2021/06/16 04:04:19;;;;;;;5.25;2.22;;;17.60;99.90;;;;;;2054992;28;20104;-69
2021/06/16 04:05:20;;;;;;;5.22;3.20;;;17.60;99.90;;;;;;2055601;28;20109;-69
2021/06/16 04:06:20;;;;;;;5.32;2.40;;;17.60;99.90;;;;;;2055564;28;20437;-69
2021/06/16 04:07:23;;;;;;;7.70;3.25;;;17.60;99.90;;;;;;2055347;28;20401;-69
2021/06/16 04:08:24;;;;;;;4.55;2.20;;;17.70;99.90;;;;;;2055443;28;20059;-69
2021/06/16 04:09:25;;;;;;;5.30;2.63;;;17.70;99.90;;;;;;2055555;28;20034;-69
2021/06/16 04:10:26;;;;;;;5.90;2.63;;;17.80;99.90;;;;;;2055377;28;20118;-69
2021/06/16 04:11:27;;;;;;;7.15;3.63;;;17.80;99.90;;;;;;2055083;28;20031;-69
2021/06/16 04:12:28;;;;;;;7.75;2.83;;;17.90;99.90;;;;;;2055162;28;20023;-69
2021/06/16 04:13:29;;;;;;;4.18;2.90;;;18.00;99.90;;;;;;2054467;28;20148;-69
2021/06/16 04:14:29;;;;;;;7.00;2.65;;;18.20;99.90;;;;;;2055670;28;20108;-69
2021/06/16 04:15:30;;;;;;;6.93;3.20;;;18.40;99.90;;;;;;2054969;28;20145;-69
2021/06/16 04:16:31;;;;;;;8.52;3.10;;;18.60;99.90;;;;;;2055360;28;20042;-69
2021/06/16 04:17:32;;;;;;;6.50;3.03;;;18.70;99.90;;;;;;2055177;28;20023;-69
2021/06/16 04:18:33;;;;;;;3.40;2.80;;;18.90;99.90;;;;;;2055352;28;20043;-69
2021/06/16 04:19:34;;;;;;;5.55;3.08;;;19.00;99.50;;;;;;2055124;28;20035;-69
2021/06/16 04:20:34;;;;;;;7.47;3.35;;;19.10;99.90;;;;;;2055336;28;20397;-69
2021/06/16 04:21:35;;;;;;;6.85;3.30;;;19.20;99.50;;;;;;2054703;28;20027;-69
2021/06/16 04:22:36;;;;;;;6.53;3.05;;;19.20;99.80;;;;;;2055382;28;20417;-69
2021/06/16 04:23:37;;;;;;;6.47;2.95;;;19.30;99.40;;;;;;2055245;28;20147;-69
2021/06/16 04:24:37;;;;;;;8.10;3.50;;;19.40;99.20;;;;;;2055210;28;20227;-69
2021/06/16 04:25:38;;;;;;;4.20;2.90;;;19.40;98.50;;;;;;2054846;28;20023;-69
2021/06/16 04:26:39;;;;;;;9.23;3.30;;;19.50;98.50;;;;;;2055019;28;20046;-71
2021/06/16 04:27:39;;;;;;;7.85;3.45;;;19.50;98.60;;;;;;2054357;28;20042;-68
2021/06/16 04:28:40;;;;;;;5.45;2.80;;;19.50;98.40;;;;;;2072371;28;20463;-68
2021/06/16 04:29:41;;;;;;;3.63;2.40;;;19.60;99.00;;;;;;2069106;28;20058;-69
2021/06/16 04:30:42;;;;;;;7.57;2.90;;;19.50;98.80;;;;;;2057461;28;20038;-68
2021/06/16 04:31:42;;;;;;;4.47;2.63;;;19.50;98.50;;;;;;2054971;28;20050;-68
2021/06/16 04:32:43;;;;;;;6.15;2.90;;;19.60;98.70;;;;;;2060703;28;20478;-68
2021/06/16 04:33:45;;;;;;;5.85;3.08;;;19.60;99.90;;;;;;2060755;28;20034;-68
2021/06/16 04:34:45;;;;;;;4.28;3.70;;;19.60;99.80;;;;;;2055432;28;20547;-68
2021/06/16 04:35:46;;;;;;;5.28;2.67;;;19.60;99.90;;;;;;2051278;28;20458;-68
2021/06/16 04:36:46;;;;;;;7.35;2.83;;;19.60;99.90;;;;;;2052943;28;20023;-68
2021/06/16 04:37:47;;;;;;;6.05;2.55;;;19.60;99.90;;;;;;2051684;28;20353;-69
2021/06/16 04:38:48;;;;;;;9.73;3.15;;;19.60;99.90;;;;;;2054607;28;20083;-68
2021/06/16 04:39:48;;;;;;;5.95;3.17;;;19.60;99.90;;;;;;2052481;28;20031;-68
2021/06/16 04:40:49;;;;;;;6.40;3.22;;;19.60;99.90;;;;;;2059797;28;20023;-68
2021/06/16 04:41:49;;;;;;;4.07;3.08;;;19.60;99.70;;;;;;2051537;28;20523;-68
2021/06/16 04:42:51;;;;;;;8.80;3.08;;;19.60;99.90;;;;;;2058740;28;20114;-68
2021/06/16 04:43:51;;;;;;;9.02;3.22;;;19.70;99.90;;;;;;2057802;28;20031;-68
2021/06/16 04:44:52;;;;;;;3.72;2.70;;;19.60;99.90;;;;;;2047937;28;20038;-68
2021/06/16 04:45:53;;;;;;;5.22;2.50;;;19.60;99.90;;;;;;2053020;28;20080;-68
2021/06/16 04:46:54;;;;;;;6.28;3.28;;;19.70;99.70;;;;;;2050798;28;20510;-69
2021/06/16 04:47:54;;;;;;;5.47;3.15;;;19.70;99.90;;;;;;2057758;28;20391;-69
2021/06/16 04:48:55;;;;;;;6.55;3.28;;;19.70;99.90;;;;;;2062667;28;20708;-68
2021/06/16 04:49:56;;;;;;;4.70;2.97;;;19.70;99.90;;;;;;2060172;28;20088;-68
2021/06/16 04:50:57;;;;;;;13.10;3.38;;;19.70;99.50;;;;;;2075428;28;20501;-68
2021/06/16 04:51:57;;;;;;;7.63;2.65;;;19.80;98.70;;;;;;2059219;28;20379;-68
2021/06/16 04:52:58;;;;;;;4.43;2.85;;;19.80;98.60;;;;;;2053963;28;20046;-68
2021/06/16 04:53:58;;;;;;;6.28;2.70;;;19.80;98.30;;;;;;2058391;28;20023;-68
2021/06/16 04:54:59;;;;;;;4.28;3.30;;;19.80;98.50;;;;;;2049860;28;20054;-68
2021/06/16 04:55:59;;;;;;;5.25;3.45;;;19.90;99.10;;;;;;2051680;28;20114;-68
2021/06/16 04:57:04;;;;;;;5.20;3.42;;;19.90;99.40;;;;;;2050002;28;20020;-68
2021/06/16 04:58:05;;;;;;;5.95;2.80;;;19.90;99.30;;;;;;2048826;28;20486;-68
2021/06/16 04:59:05;;;;;;;5.75;3.08;;;19.90;98.80;;;;;;2052780;28;20401;-68
2021/06/16 05:00:09;;;;;;;8.95;3.03;;;20.00;99.40;;;;;;2050396;28;20098;-68
2021/06/16 05:01:10;;;;;;;9.10;3.28;;;20.00;99.20;;;;;;2049691;28;20035;-69
2021/06/16 05:02:10;;;;;;;8.27;3.25;;;20.00;99.30;;;;;;2050539;28;20026;-68
2021/06/16 05:03:11;;;;;;;4.45;2.83;;;20.10;99.40;;;;;;2071171;28;20028;-68
2021/06/16 05:04:11;;;;;;;6.22;3.22;;;20.10;99.10;;;;;;2059037;28;20027;-68
2021/06/16 05:05:12;;;;;;;5.78;3.05;;;20.10;99.00;;;;;;2053528;28;20019;-68
2021/06/16 05:06:13;;;;;;;6.50;3.40;;;20.20;99.10;;;;;;2048178;28;20031;-69
2021/06/16 05:07:13;;;;;;;6.70;3.33;;;20.20;99.40;;;;;;2058175;28;20156;-68
2021/06/16 05:08:14;;;;;;;6.88;3.55;;;20.30;98.50;;;;;;2056693;28;20042;-68
2021/06/16 05:09:14;;;;;;;5.70;3.28;;;20.30;98.70;;;;;;2061891;28;20030;-68
2021/06/16 05:10:15;;;;;;;10.50;3.83;;;20.40;98.60;;;;;;2054799;28;20042;-68
2021/06/16 05:11:15;;;;;;;7.05;4.32;;;20.40;99.30;;;;;;2055540;28;20102;-68
2021/06/16 05:12:16;;;;;;;6.45;3.55;;;20.50;99.30;;;;;;2055080;28;20108;-68
2021/06/16 05:13:24;;;;;;;9.23;3.30;;;20.50;98.90;;;;;;2050265;28;20027;-68
2021/06/16 05:14:25;;;;;;;7.35;4.85;;;20.60;97.90;;;;;;2071528;28;20116;-68
2021/06/16 05:15:25;;;;;;;9.35;3.95;;;20.70;98.40;;;;;;2062963;28;20028;-68
2021/06/16 05:16:26;;;;;;;8.77;5.00;;;20.70;98.50;;;;;;2056401;28;20016;-68
2021/06/16 05:17:26;;;;;;;6.72;4.60;;;20.80;98.20;;;;;;2064574;28;20069;-68
2021/06/16 05:18:27;;;;;;;6.88;4.32;;;20.80;98.00;;;;;;2058906;28;20121;-68
2021/06/16 05:19:28;;;;;;;8.25;4.63;;;20.80;98.40;;;;;;2058078;28;20947;-69
2021/06/16 05:20:28;;;;;;;14.38;5.32;;;20.90;98.20;;;;;;2058669;28;20052;-68
2021/06/16 05:21:29;;;;;;;9.30;4.53;;;20.90;97.90;;;;;;2054788;28;20039;-68
2021/06/16 05:22:30;;;;;;;9.02;4.88;;;20.90;97.90;;;;;;2055269;28;20034;-69
2021/06/16 05:23:30;;;;;;;6.18;4.43;;;21.00;97.90;;;;;;2064602;28;20030;-70
2021/06/16 05:24:31;;;;;;;7.82;4.00;;;21.10;98.00;;;;;;2058799;28;20050;-70
2021/06/16 05:25:32;;;;;;;8.75;4.90;;;21.10;97.30;;;;;;2063013;28;20462;-69